Time;durP1;ratioP1;P1;durP2;ratioP2;P2;SDS_P1;SDS_P2;PMS_P1;PMS_P2;Temp;Humidity;BMP_temperature;BMP_pressure;BME280_temperature;BME280_humidity;BME280_pressure;Samples;Min_cycle;Max_cycle;Signal;HPM_P1;HPM_P2
2023/01/20 00:01:27;;;;;;;5.47;1.60;;;;;;;16.40;64.21;-24274.06;5078552;28;20261;-79
2023/01/20 00:03:54;;;;;;;2.55;1.10;;;;;;;16.14;65.08;-24266.94;5085396;28;20174;-80
2023/01/20 00:06:21;;;;;;;1.90;1.40;;;;;;;15.82;64.93;-24258.28;5081055;28;20225;-81
2023/01/20 00:08:59;;;;;;;2.90;1.40;;;;;;;15.68;67.09;-24254.34;5073990;28;20173;-81
2023/01/20 00:11:25;;;;;;;1.83;1.40;;;;;;;16.07;66.94;-24265.00;5078378;28;20166;-80
2023/01/20 00:13:59;;;;;;;1.35;1.20;;;;;;;15.78;66.10;-24257.16;5078013;28;20166;-81
2023/01/20 00:16:26;;;;;;;1.25;1.05;;;;;;;15.37;67.40;-24245.66;5075670;28;20545;-81
2023/01/20 00:18:52;;;;;;;4.53;1.38;;;;;;;15.67;66.63;-24254.06;5076475;28;20639;-79
2023/01/20 00:21:18;;;;;;;1.30;1.20;;;;;;;15.87;66.08;-24259.53;5075420;28;20174;-82
2023/01/20 00:23:45;;;;;;;3.05;1.55;;;;;;;15.79;63.70;-24257.44;5075332;28;20178;-84
2023/01/20 00:26:19;;;;;;;0.85;0.85;;;;;;;16.24;62.81;-24269.75;5074324;28;20556;-83
2023/01/20 00:28:47;;;;;;;1.23;1.10;;;;;;;16.45;60.97;-24275.63;5074704;28;20189;-82
2023/01/20 00:31:20;;;;;;;1.67;1.20;;;;;;;16.34;59.73;-24272.69;5071467;28;20182;-80
2023/01/20 00:33:47;;;;;;;1.95;1.10;;;;;;;16.58;59.42;-24279.25;5075436;28;20184;-81
2023/01/20 00:36:14;;;;;;;4.88;1.45;;;;;;;16.59;60.70;-24279.53;5075504;28;20174;-82
2023/01/20 00:38:41;;;;;;;1.70;1.20;;;;;;;16.61;58.59;-24279.94;5074677;28;20166;-81
2023/01/20 00:41:08;;;;;;;1.83;1.08;;;;;;;16.63;59.74;-24280.66;5073830;28;20202;-81
2023/01/20 00:43:34;;;;;;;1.38;1.13;;;;;;;16.45;59.38;-24275.63;5075356;28;20648;-82
2023/01/20 00:46:06;;;;;;;1.27;1.02;;;;;;;16.56;60.03;-24278.53;5075535;28;20190;-85
2023/01/20 00:48:35;;;;;;;2.15;1.10;;;;;;;16.29;62.84;-24271.13;5075079;28;20186;-84
2023/01/20 00:51:06;;;;;;;1.70;1.30;;;;;;;15.82;63.67;-24258.28;5073675;28;20196;-83
2023/01/20 00:53:33;;;;;;;1.17;1.08;;;;;;;16.35;62.42;-24272.81;5074535;28;20178;-81
2023/01/20 00:56:01;;;;;;;1.23;1.13;;;;;;;16.55;59.89;-24278.28;5074154;28;20170;-81
2023/01/20 00:58:27;;;;;;;1.35;1.20;;;;;;;16.56;58.25;-24278.53;5074729;28;20229;-83
2023/01/20 01:00:57;;;;;;;1.10;1.00;;;;;;;16.77;59.00;-24284.41;5073462;28;20202;-83
2023/01/20 01:03:23;;;;;;;1.00;1.00;;;;;;;16.63;60.99;-24280.50;5075218;28;20614;-80
2023/01/20 01:05:49;;;;;;;2.78;1.20;;;;;;;16.66;60.49;-24281.50;5073413;28;20225;-82
2023/01/20 01:08:14;;;;;;;1.20;1.10;;;;;;;16.21;62.89;-24268.91;5074664;28;20182;-83
2023/01/20 01:10:40;;;;;;;2.90;1.33;;;;;;;16.37;63.77;-24273.25;5073974;28;20536;-82
2023/01/20 01:13:07;;;;;;;1.20;1.10;;;;;;;16.40;62.12;-24274.22;5072882;28;20162;-82
2023/01/20 01:15:33;;;;;;;1.30;1.20;;;;;;;16.29;61.14;-24271.13;5074660;28;20174;-82
2023/01/20 01:17:58;;;;;;;1.25;1.15;;;;;;;16.01;62.56;-24263.44;5073928;28;20223;-82
2023/01/20 01:20:25;;;;;;;4.10;1.30;;;;;;;16.38;63.57;-24273.66;5072575;28;20679;-83
2023/01/20 01:22:50;;;;;;;1.33;1.23;;;;;;;16.33;62.33;-24272.25;5072615;28;20243;-83
2023/01/20 01:25:16;;;;;;;0.90;0.90;;;;;;;16.22;61.26;-24269.31;5072005;28;20174;-83
2023/01/20 01:27:42;;;;;;;1.67;1.10;;;;;;;16.42;59.71;-24274.78;5071668;28;20216;-81
2023/01/20 01:30:08;;;;;;;0.98;0.98;;;;;;;16.26;59.82;-24270.44;5073836;28;20208;-82
2023/01/20 01:32:33;;;;;;;2.05;1.00;;;;;;;16.27;59.34;-24270.59;5072605;28;20186;-82
2023/01/20 01:34:58;;;;;;;1.35;0.95;;;;;;;16.46;59.22;-24275.88;5072516;28;20162;-82
2023/01/20 01:37:26;;;;;;;1.70;1.30;;;;;;;16.48;59.41;-24276.44;5072808;28;20205;-81
2023/01/20 01:39:52;;;;;;;1.20;1.10;;;;;;;16.37;59.75;-24273.25;5071659;28;20681;-81
2023/01/20 01:42:21;;;;;;;1.92;1.20;;;;;;;16.57;62.83;-24278.81;5072055;28;20265;-83
2023/01/20 01:45:11;;;;;;;1.25;1.15;;;;;;;16.49;63.10;-24276.72;5072275;28;20275;-82
2023/01/20 01:48:05;;;;;;;1.20;1.10;;;;;;;16.36;62.65;-24273.09;5073823;28;20194;-81
2023/01/20 01:50:46;;;;;;;1.25;1.15;;;;;;;16.25;63.03;-24270.03;5071877;28;20198;-81
2023/01/20 01:53:13;;;;;;;1.98;1.02;;;;;;;16.01;64.51;-24263.44;5073374;28;20633;-81
2023/01/20 01:55:44;;;;;;;0.90;0.90;;;;;;;15.21;78.14;-24241.34;5073694;28;20178;-82
2023/01/20 01:58:14;;;;;;;2.78;1.00;;;;;;;15.07;80.16;-24237.28;5073604;28;20174;-81
2023/01/20 02:00:41;;;;;;;0.85;0.80;;;;;;;13.75;91.63;-24200.66;5073187;28;20182;-82
2023/01/20 02:03:07;;;;;;;1.00;1.00;;;;;;;13.59;99.15;-24196.31;5073404;28;20203;-82
2023/01/20 02:05:35;;;;;;;0.90;0.90;;;;;;;13.15;100.00;-24184.09;5072908;28;20229;-81
2023/01/20 02:08:02;;;;;;;0.80;0.80;;;;;;;13.34;100.00;-24189.28;5075146;28;20166;-80
2023/01/20 02:10:27;;;;;;;0.80;0.80;;;;;;;12.79;100.00;-24174.09;5081791;28;20174;-81
2023/01/20 02:12:53;;;;;;;1.10;1.10;;;;;;;12.81;100.00;-24174.66;5087639;28;20206;-82
2023/01/20 02:15:26;;;;;;;0.93;0.93;;;;;;;12.59;100.00;-24168.63;5074183;28;20166;-80
2023/01/20 02:18:23;;;;;;;0.82;0.82;;;;;;;12.75;100.00;-24173.13;5074117;28;20181;-81
2023/01/20 02:21:10;;;;;;;0.98;0.98;;;;;;;12.54;100.00;-24167.22;5073835;28;20181;-81
2023/01/20 02:23:35;;;;;;;0.90;0.90;;;;;;;12.67;100.00;-24170.72;5053430;28;20178;-82
2023/01/20 02:26:16;;;;;;;0.80;0.80;;;;;;;12.58;100.00;-24168.34;5053479;28;20194;-80
2023/01/20 02:29:00;;;;;;;0.85;0.85;;;;;;;12.51;100.00;-24166.38;5052392;28;20589;-82
2023/01/20 02:31:53;;;;;;;0.90;0.90;;;;;;;12.30;100.00;-24160.47;5051953;28;20166;-80
2023/01/20 02:34:57;;;;;;;1.30;1.20;;;;;;;12.09;100.00;-24154.69;5050057;28;20174;-82
2023/01/20 02:37:35;;;;;;;0.82;0.82;;;;;;;11.97;100.00;-24151.31;5050635;28;20217;-82
2023/01/20 02:40:00;;;;;;;0.95;0.95;;;;;;;11.79;100.00;-24146.25;5052359;28;20178;-81
2023/01/20 02:42:36;;;;;;;1.33;1.10;;;;;;;11.78;100.00;-24146.09;5069607;28;20189;-81
2023/01/20 02:45:12;;;;;;;2.15;1.15;;;;;;;11.97;100.00;-24151.16;5070760;28;20235;-81
2023/01/20 02:48:03;;;;;;;1.00;1.00;;;;;;;11.96;100.00;-24151.03;5072523;28;20162;-82
2023/01/20 02:50:33;;;;;;;1.27;1.20;;;;;;;11.91;100.00;-24149.75;5075828;28;20201;-81
2023/01/20 02:53:02;;;;;;;0.90;0.90;;;;;;;11.84;100.00;-24147.66;5076293;28;20167;-83
2023/01/20 02:55:32;;;;;;;1.15;1.05;;;;;;;11.98;100.00;-24151.59;5075218;28;20698;-82
2023/01/20 02:58:06;;;;;;;0.90;0.90;;;;;;;11.59;100.00;-24140.59;5075277;28;20174;-83
2023/01/20 03:00:47;;;;;;;0.88;0.88;;;;;;;11.73;100.00;-24144.69;5074999;28;20223;-80
2023/01/20 03:03:18;;;;;;;1.20;1.20;;;;;;;12.01;100.00;-24152.44;5077242;28;20166;-81
2023/01/20 03:05:53;;;;;;;1.10;1.10;;;;;;;11.26;100.00;-24131.59;5076928;28;20226;-82
2023/01/20 03:08:21;;;;;;;1.60;0.90;;;;;;;11.31;100.00;-24133.00;5076640;28;20240;-82
2023/01/20 03:10:48;;;;;;;1.17;1.15;;;;;;;11.44;100.00;-24136.66;5076248;28;20633;-83
2023/01/20 03:13:21;;;;;;;0.90;0.90;;;;;;;11.38;100.00;-24134.81;5076828;28;20193;-79
2023/01/20 03:16:06;;;;;;;1.40;1.30;;;;;;;11.70;100.00;-24143.84;5076728;28;20170;-81
2023/01/20 03:18:33;;;;;;;1.50;1.35;;;;;;;11.50;100.00;-24138.22;5075428;28;20257;-80
2023/01/20 03:21:01;;;;;;;1.95;1.30;;;;;;;11.08;100.00;-24126.66;5075637;28;20174;-82
2023/01/20 03:23:30;;;;;;;2.45;1.20;;;;;;;10.36;100.00;-24106.47;5074671;28;20174;-81
2023/01/20 03:25:56;;;;;;;1.52;1.42;;;;;;;11.40;100.00;-24135.53;5074701;28;20201;-79
2023/01/20 03:28:22;;;;;;;1.95;1.55;;;;;;;11.49;100.00;-24137.94;5074717;28;20184;-80
2023/01/20 03:30:47;;;;;;;1.40;1.30;;;;;;;11.44;100.00;-24136.66;5076336;28;20169;-80
2023/01/20 03:33:15;;;;;;;1.17;1.10;;;;;;;11.36;100.00;-24134.41;5074856;28;20767;-82
2023/01/20 03:35:40;;;;;;;1.20;1.10;;;;;;;11.49;100.00;-24138.06;5076145;28;20178;-80
2023/01/20 03:38:06;;;;;;;1.10;1.10;;;;;;;11.34;100.00;-24133.84;5074855;28;20514;-81
2023/01/20 03:40:40;;;;;;;1.00;1.00;;;;;;;10.93;100.00;-24122.41;5075322;28;20166;-80
2023/01/20 03:43:41;;;;;;;1.23;1.13;;;;;;;11.48;100.00;-24137.78;5074140;28;20174;-81
2023/01/20 03:46:23;;;;;;;5.88;1.50;;;;;;;11.28;100.00;-24132.16;5063951;28;20217;-84
2023/01/20 03:49:35;;;;;;;1.50;1.40;;;;;;;11.26;100.00;-24131.44;5075958;28;20181;-82
2023/01/20 03:52:07;;;;;;;1.23;1.17;;;;;;;11.19;100.00;-24129.59;5055719;28;20218;-82
2023/01/20 03:54:46;;;;;;;1.00;1.00;;;;;;;11.00;100.00;-24124.41;5075005;28;20178;-81
2023/01/20 03:57:20;;;;;;;1.27;1.17;;;;;;;11.04;100.00;-24125.38;5075673;28;20189;-82
2023/01/20 03:59:50;;;;;;;5.05;1.55;;;;;;;10.86;100.00;-24120.31;5074700;28;20592;-82
2023/01/20 04:02:15;;;;;;;1.45;1.20;;;;;;;10.51;100.00;-24110.72;5074006;28;20611;-82
2023/01/20 04:04:43;;;;;;;1.50;1.40;;;;;;;10.36;100.00;-24106.34;5073650;28;20170;-81
2023/01/20 04:07:16;;;;;;;1.15;1.10;;;;;;;10.78;100.00;-24118.03;5074050;28;20198;-82
2023/01/20 04:09:49;;;;;;;1.30;1.20;;;;;;;10.82;100.00;-24119.19;5074664;28;20162;-81
2023/01/20 04:12:15;;;;;;;1.10;1.10;;;;;;;10.75;100.00;-24117.34;5075878;28;20286;-80
2023/01/20 04:14:40;;;;;;;1.00;1.00;;;;;;;10.62;100.00;-24113.81;5074732;28;20637;-82
2023/01/20 04:17:06;;;;;;;1.38;1.25;;;;;;;10.33;100.00;-24105.63;5074366;28;20659;-80
2023/01/20 04:19:32;;;;;;;1.30;1.20;;;;;;;10.54;100.00;-24111.56;5074340;28;20174;-80
2023/01/20 04:21:57;;;;;;;1.60;1.50;;;;;;;10.84;100.00;-24119.88;5068484;28;20182;-83
2023/01/20 04:24:53;;;;;;;2.25;1.48;;;;;;;10.94;100.00;-24122.69;5068376;28;20699;-80
2023/01/20 04:27:19;;;;;;;1.40;1.30;;;;;;;11.16;100.00;-24128.63;5068478;28;20702;-81
2023/01/20 04:29:45;;;;;;;1.50;1.38;;;;;;;11.05;100.00;-24125.81;5077814;28;20209;-81
2023/01/20 04:32:11;;;;;;;3.00;1.83;;;;;;;10.92;100.00;-24122.13;5086900;28;20220;-80
2023/01/20 04:34:37;;;;;;;1.85;1.40;;;;;;;10.61;100.00;-24113.41;5071760;28;20618;-80
2023/01/20 04:37:03;;;;;;;1.45;1.35;;;;;;;10.79;100.00;-24118.34;5067793;28;20241;-80
2023/01/20 04:39:28;;;;;;;1.63;1.52;;;;;;;10.69;100.00;-24115.50;5069359;28;20254;-81
2023/01/20 04:41:53;;;;;;;1.88;1.65;;;;;;;10.73;100.00;-24116.78;5071233;28;20186;-80
2023/01/20 04:44:19;;;;;;;1.35;1.25;;;;;;;11.04;100.00;-24125.38;5067957;28;20186;-80
2023/01/20 04:46:46;;;;;;;4.60;1.88;;;;;;;10.87;100.00;-24120.72;5069156;28;20274;-82
2023/01/20 04:49:12;;;;;;;1.70;1.60;;;;;;;10.93;100.00;-24122.28;5067071;28;20192;-82
2023/01/20 04:51:38;;;;;;;2.33;1.80;;;;;;;10.95;100.00;-24122.84;5067216;28;20184;-80
2023/01/20 04:54:04;;;;;;;1.70;1.60;;;;;;;10.91;100.00;-24121.72;5066582;28;20182;-80
2023/01/20 04:56:30;;;;;;;2.55;1.70;;;;;;;10.92;100.00;-24122.00;5065728;28;20205;-79
2023/01/20 04:58:56;;;;;;;1.33;1.23;;;;;;;10.77;100.00;-24117.78;5065517;28;20685;-80
2023/01/20 05:01:21;;;;;;;1.70;1.60;;;;;;;11.06;100.00;-24125.94;5067253;28;20256;-80
2023/01/20 05:03:46;;;;;;;2.55;1.73;;;;;;;10.83;100.00;-24119.47;5066583;28;20193;-80
2023/01/20 05:06:12;;;;;;;2.20;1.60;;;;;;;11.16;100.00;-24128.63;5067038;28;20834;-83
2023/01/20 05:08:38;;;;;;;1.17;1.13;;;;;;;10.77;100.00;-24117.78;5066699;28;20261;-81
2023/01/20 05:11:04;;;;;;;1.65;1.23;;;;;;;10.91;100.00;-24121.72;5067130;28;20186;-81
2023/01/20 05:13:29;;;;;;;1.77;1.42;;;;;;;11.02;100.00;-24124.97;5066196;28;20276;-83
2023/01/20 05:15:55;;;;;;;1.70;1.52;;;;;;;11.07;100.00;-24126.22;5065626;28;20182;-82
2023/01/20 05:18:20;;;;;;;1.67;1.30;;;;;;;10.94;100.00;-24122.56;5059074;28;20185;-82
2023/01/20 05:20:47;;;;;;;1.30;1.20;;;;;;;10.89;100.00;-24121.28;5069556;28;20178;-83
2023/01/20 05:23:12;;;;;;;1.50;1.40;;;;;;;10.99;100.00;-24123.97;5073615;28;20230;-81
2023/01/20 05:25:38;;;;;;;1.40;1.30;;;;;;;10.79;100.00;-24118.34;5072493;28;20210;-82
2023/01/20 05:28:04;;;;;;;1.48;1.33;;;;;;;10.72;100.00;-24116.34;5071414;28;20557;-82
2023/01/20 05:30:30;;;;;;;1.38;1.27;;;;;;;10.46;100.00;-24109.16;5073599;28;20178;-79
2023/01/20 05:32:55;;;;;;;1.40;1.30;;;;;;;10.74;100.00;-24116.91;5073487;28;20181;-81
2023/01/20 05:35:20;;;;;;;1.38;1.20;;;;;;;10.69;100.00;-24115.50;5073325;28;20185;-80
2023/01/20 05:37:46;;;;;;;3.15;2.13;;;;;;;11.08;100.00;-24126.50;5072815;28;20185;-80
2023/01/20 05:40:12;;;;;;;1.65;1.55;;;;;;;11.05;100.00;-24125.81;5072329;28;20718;-76
2023/01/20 05:42:37;;;;;;;1.25;1.17;;;;;;;10.55;100.00;-24111.84;5071022;28;20525;-77
2023/01/20 05:45:03;;;;;;;1.00;1.00;;;;;;;10.71;100.00;-24116.06;5072970;28;20186;-78
2023/01/20 05:47:29;;;;;;;1.95;1.75;;;;;;;10.71;100.00;-24116.06;5072424;28;20208;-78
2023/01/20 05:49:54;;;;;;;1.30;1.20;;;;;;;10.79;100.00;-24118.34;5072053;28;20205;-79
2023/01/20 05:52:20;;;;;;;1.70;1.40;;;;;;;10.86;100.00;-24120.31;5071038;28;20185;-80
2023/01/20 05:54:45;;;;;;;1.73;1.60;;;;;;;10.59;100.00;-24112.81;5071436;28;20182;-81
2023/01/20 05:57:11;;;;;;;15.88;1.70;;;;;;;11.16;100.00;-24128.75;5073115;28;20174;-81
2023/01/20 05:59:36;;;;;;;2.85;1.95;;;;;;;10.94;100.00;-24122.69;5071818;28;20181;-80
2023/01/20 06:02:01;;;;;;;2.70;1.80;;;;;;;10.75;100.00;-24117.19;5072385;28;20180;-82
2023/01/20 06:04:27;;;;;;;1.77;1.67;;;;;;;10.61;100.00;-24113.41;5070433;28;20170;-80
2023/01/20 06:06:52;;;;;;;6.68;3.08;;;;;;;10.60;100.00;-24113.13;5072721;28;20742;-81
2023/01/20 06:09:18;;;;;;;4.57;2.75;;;;;;;10.10;100.00;-24099.28;5071953;28;20186;-81
2023/01/20 06:11:43;;;;;;;5.95;3.55;;;;;;;10.28;100.00;-24104.06;5072205;28;20173;-81
2023/01/20 06:14:08;;;;;;;4.60;2.88;;;;;;;10.27;100.00;-24103.78;5070782;28;20173;-80
2023/01/20 06:16:34;;;;;;;4.10;2.47;;;;;;;9.97;100.00;-24095.47;5073370;28;20182;-80
2023/01/20 06:18:59;;;;;;;2.92;2.47;;;;;;;9.84;100.00;-24091.78;5072620;28;20235;-82
2023/01/20 06:21:25;;;;;;;4.07;2.10;;;;;;;10.16;100.00;-24100.84;5070948;28;20794;-81
2023/01/20 06:23:52;;;;;;;3.05;2.33;;;;;;;10.24;100.00;-24103.09;5076568;28;20191;-81
2023/01/20 06:26:17;;;;;;;3.88;2.20;;;;;;;10.17;100.00;-24101.25;5074750;28;20626;-82
2023/01/20 06:28:43;;;;;;;3.83;2.28;;;;;;;10.29;100.00;-24104.38;5075417;28;20215;-82
2023/01/20 06:31:10;;;;;;;3.47;1.95;;;;;;;10.51;100.00;-24110.72;5076879;28;20173;-81
2023/01/20 06:33:36;;;;;;;1.97;1.77;;;;;;;10.52;100.00;-24111.00;5076494;28;20181;-81
2023/01/20 06:36:02;;;;;;;3.85;2.03;;;;;;;10.47;100.00;-24109.44;5074518;28;20642;-80
2023/01/20 06:38:30;;;;;;;2.65;1.92;;;;;;;10.62;100.00;-24113.81;5075794;28;20174;-82
2023/01/20 06:40:57;;;;;;;3.95;2.00;;;;;;;10.40;100.00;-24107.47;5075482;28;20555;-80
2023/01/20 06:43:23;;;;;;;2.92;2.33;;;;;;;10.45;100.00;-24109.03;5074403;28;20174;-80
2023/01/20 06:45:49;;;;;;;3.63;1.85;;;;;;;10.51;100.00;-24110.72;5075968;28;20315;-79
2023/01/20 06:48:14;;;;;;;2.28;1.77;;;;;;;10.95;100.00;-24123.00;5076864;28;20229;-80
2023/01/20 06:50:40;;;;;;;2.55;1.80;;;;;;;10.70;100.00;-24115.78;5088743;28;20201;-78
2023/01/20 06:53:05;;;;;;;1.83;1.60;;;;;;;11.07;100.00;-24126.38;5076439;28;20181;-79
2023/01/20 06:55:30;;;;;;;2.80;2.05;;;;;;;11.08;100.00;-24126.50;5075033;28;20185;-79
2023/01/20 06:57:56;;;;;;;1.85;1.55;;;;;;;10.98;100.00;-24123.69;5075986;28;20198;-80
2023/01/20 07:00:22;;;;;;;1.85;1.55;;;;;;;10.93;100.00;-24122.41;5076155;28;20177;-80
2023/01/20 07:02:48;;;;;;;3.88;1.70;;;;;;;11.50;100.00;-24138.22;5076585;28;20178;-79
2023/01/20 07:05:14;;;;;;;2.65;1.40;;;;;;;11.14;100.00;-24128.19;5075941;28;20233;-80
2023/01/20 07:07:42;;;;;;;3.10;1.40;;;;;;;11.25;100.00;-24131.16;5074050;28;20177;-80
2023/01/20 07:10:08;;;;;;;2.42;1.88;;;;;;;11.32;100.00;-24133.28;5073582;28;20186;-80
2023/01/20 07:12:33;;;;;;;1.88;1.60;;;;;;;11.59;100.00;-24140.75;5075772;28;20178;-81
2023/01/20 07:14:59;;;;;;;1.85;1.75;;;;;;;11.61;100.00;-24141.31;5074853;28;20256;-79
2023/01/20 07:17:24;;;;;;;3.45;1.92;;;;;;;11.72;100.00;-24144.41;5075164;28;20551;-79
2023/01/20 07:19:49;;;;;;;3.00;1.90;;;;;;;11.69;100.00;-24143.56;5074248;28;20174;-80
2023/01/20 07:22:15;;;;;;;2.60;1.67;;;;;;;11.82;100.00;-24147.09;5073678;28;20649;-80
2023/01/20 07:24:40;;;;;;;2.00;1.48;;;;;;;11.57;100.00;-24140.03;5073397;28;20218;-80
2023/01/20 07:27:06;;;;;;;2.17;1.50;;;;;;;11.69;100.00;-24143.56;5074726;28;20201;-79
2023/01/20 07:29:31;;;;;;;2.28;1.67;;;;;;;11.67;100.00;-24143.00;5074899;28;20166;-79
2023/01/20 07:31:56;;;;;;;1.80;1.58;;;;;;;11.25;100.00;-24131.16;5074387;28;20726;-79
2023/01/20 07:34:22;;;;;;;2.30;1.60;;;;;;;11.44;100.00;-24136.66;5072853;28;20173;-79
2023/01/20 07:36:50;;;;;;;2.05;1.85;;;;;;;11.16;100.00;-24128.63;5074366;28;20178;-79
2023/01/20 07:39:18;;;;;;;4.80;2.08;;;;;;;11.39;100.00;-24135.09;5074293;28;20174;-79
2023/01/20 07:41:48;;;;;;;2.47;1.80;;;;;;;11.49;100.00;-24138.06;5075029;28;20162;-79
2023/01/20 07:44:15;;;;;;;3.47;2.22;;;;;;;11.32;100.00;-24133.13;5075123;28;20166;-80
2023/01/20 07:46:40;;;;;;;2.72;1.98;;;;;;;11.48;100.00;-24137.78;5074850;28;20200;-81
2023/01/20 07:49:06;;;;;;;2.45;2.20;;;;;;;10.98;100.00;-24123.84;5075225;28;20264;-80
2023/01/20 07:51:31;;;;;;;4.80;2.60;;;;;;;11.25;100.00;-24131.31;5075249;28;20162;-80
2023/01/20 07:53:56;;;;;;;8.68;2.30;;;;;;;11.20;100.00;-24129.88;5073270;28;20194;-81
2023/01/20 07:56:24;;;;;;;1.92;1.75;;;;;;;10.86;100.00;-24120.31;5073626;28;20219;-81
2023/01/20 07:58:50;;;;;;;1.80;1.60;;;;;;;11.25;100.00;-24131.31;5073221;28;20668;-80
2023/01/20 08:01:19;;;;;;;2.03;1.70;;;;;;;11.07;100.00;-24126.22;5072881;28;20347;-80
2023/01/20 08:03:44;;;;;;;1.58;1.48;;;;;;;10.71;100.00;-24116.06;5073150;28;20292;-79
2023/01/20 08:06:12;;;;;;;2.13;1.70;;;;;;;10.65;100.00;-24114.53;5074690;28;20230;-80
2023/01/20 08:08:38;;;;;;;1.60;1.50;;;;;;;10.61;100.00;-24113.53;5076054;28;20240;-81
2023/01/20 08:11:06;;;;;;;3.00;1.70;;;;;;;10.35;100.00;-24106.06;5074020;28;20570;-80
2023/01/20 08:13:32;;;;;;;2.73;1.80;;;;;;;10.20;100.00;-24101.97;5075163;28;20249;-81
2023/01/20 08:16:03;;;;;;;1.80;1.60;;;;;;;10.02;100.00;-24097.03;5075313;28;20261;-80
2023/01/20 08:18:31;;;;;;;6.40;2.03;;;;;;;9.81;100.00;-24090.94;5073831;28;20162;-78
2023/01/20 08:20:56;;;;;;;3.30;1.60;;;;;;;9.66;100.00;-24086.97;5074586;28;20174;-81
2023/01/20 08:23:22;;;;;;;2.20;1.70;;;;;;;10.06;100.00;-24098.00;5075287;28;20536;-80
2023/01/20 08:25:47;;;;;;;1.63;1.50;;;;;;;10.00;100.00;-24096.44;5074498;28;20273;-80
2023/01/20 08:28:13;;;;;;;2.13;1.40;;;;;;;10.03;100.00;-24097.31;5073330;28;20163;-80
2023/01/20 08:30:38;;;;;;;2.33;1.35;;;;;;;10.23;100.00;-24102.81;5074718;28;20174;-81
2023/01/20 08:33:04;;;;;;;1.50;1.40;;;;;;;10.13;100.00;-24100.13;5073281;28;20255;-80
2023/01/20 08:35:29;;;;;;;1.50;1.40;;;;;;;10.25;100.00;-24103.22;5073797;28;20205;-79
2023/01/20 08:37:55;;;;;;;1.52;1.42;;;;;;;10.27;100.00;-24103.94;5074605;28;20166;-80
2023/01/20 08:40:20;;;;;;;1.75;1.65;;;;;;;10.38;100.00;-24106.91;5074108;28;20178;-79
2023/01/20 08:42:46;;;;;;;1.50;1.40;;;;;;;10.50;100.00;-24110.44;5074160;28;20184;-79
2023/01/20 08:45:11;;;;;;;5.13;1.55;;;;;;;10.66;100.00;-24114.81;5072746;28;20178;-80
2023/01/20 08:47:44;;;;;;;1.52;1.40;;;;;;;10.44;100.00;-24108.75;5071950;28;20210;-79
2023/01/20 08:50:12;;;;;;;3.28;1.52;;;;;;;10.87;100.00;-24120.59;5073975;28;20560;-79
2023/01/20 08:52:38;;;;;;;2.25;1.67;;;;;;;10.76;100.00;-24117.63;5073467;28;20177;-81
2023/01/20 08:55:04;;;;;;;1.92;1.60;;;;;;;10.83;100.00;-24119.47;5072642;28;20178;-79
2023/01/20 08:57:29;;;;;;;1.48;1.38;;;;;;;11.05;100.00;-24125.81;5072907;28;20178;-80
2023/01/20 08:59:54;;;;;;;3.15;1.80;;;;;;;11.08;100.00;-24126.50;5073320;28;20223;-79
2023/01/20 09:02:21;;;;;;;1.98;1.80;;;;;;;10.68;100.00;-24115.22;5077862;28;20170;-80
2023/01/20 09:04:48;;;;;;;4.47;2.28;;;;;;;10.82;100.00;-24119.19;5089421;28;20274;-78
2023/01/20 09:07:15;;;;;;;2.30;1.90;;;;;;;10.57;100.00;-24112.41;5076577;28;20743;-80
2023/01/20 09:09:40;;;;;;;3.33;2.20;;;;;;;11.16;100.00;-24128.75;5073337;28;20253;-80
2023/01/20 09:12:06;;;;;;;2.42;1.90;;;;;;;10.81;100.00;-24118.91;5072462;28;20201;-81
2023/01/20 09:14:31;;;;;;;3.70;1.80;;;;;;;10.98;100.00;-24123.69;5071948;28;20176;-80
2023/01/20 09:16:57;;;;;;;2.80;1.80;;;;;;;10.97;100.00;-24123.53;5073424;28;20239;-80
2023/01/20 09:19:23;;;;;;;1.98;1.85;;;;;;;11.12;100.00;-24127.63;5073238;28;20162;-82
2023/01/20 09:21:48;;;;;;;2.70;2.00;;;;;;;11.12;100.00;-24127.63;5072189;28;20173;-83
2023/01/20 09:24:14;;;;;;;4.60;2.30;;;;;;;11.41;100.00;-24135.81;5071720;28;20230;-79
2023/01/20 09:26:40;;;;;;;1.73;1.63;;;;;;;11.22;100.00;-24130.47;5071197;28;20604;-80
2023/01/20 09:29:11;;;;;;;2.63;2.13;;;;;;;11.46;100.00;-24137.22;5071373;28;20178;-82
2023/01/20 09:31:38;;;;;;;4.03;2.28;;;;;;;11.70;100.00;-24143.84;5073081;28;20158;-82
2023/01/20 09:34:04;;;;;;;3.15;1.80;;;;;;;12.31;100.00;-24160.88;5071687;28;20182;-78
2023/01/20 09:36:29;;;;;;;1.50;1.40;;;;;;;12.50;100.00;-24166.09;5071344;28;20247;-81
2023/01/20 09:44:52;;;;;;;1.70;1.60;;;;;;;13.12;100.00;-24183.25;5072055;28;20173;-79
2023/01/20 09:47:20;;;;;;;5.03;2.85;;;;;;;12.79;100.00;-24174.25;5070572;28;20258;-80
2023/01/20 09:53:04;;;;;;;5.45;1.90;;;;;;;12.68;100.00;-24171.00;5071955;28;20249;-78
2023/01/20 09:55:45;;;;;;;2.65;1.45;;;;;;;12.93;100.00;-24178.03;5070528;28;20174;-81
2023/01/20 09:58:14;;;;;;;1.85;1.40;;;;;;;12.93;100.00;-24177.91;5071116;28;20667;-80
2023/01/20 10:00:46;;;;;;;1.40;1.30;;;;;;;13.07;100.00;-24181.97;5070989;28;20667;-81
2023/01/20 10:03:35;;;;;;;2.00;1.38;;;;;;;13.09;100.00;-24182.41;5072478;28;20231;-83
2023/01/20 10:06:08;;;;;;;1.42;1.27;;;;;;;13.51;100.00;-24194.06;5070750;28;20396;-81
2023/01/20 10:08:47;;;;;;;1.17;1.10;;;;;;;13.63;100.00;-24197.56;5070342;28;20198;-80
2023/01/20 10:11:17;;;;;;;1.85;1.30;;;;;;;13.44;100.00;-24192.09;5069919;28;20216;-82
2023/01/20 10:14:06;;;;;;;1.40;1.30;;;;;;;13.34;100.00;-24189.44;5070851;28;20189;-83
2023/01/20 10:16:41;;;;;;;1.90;1.50;;;;;;;13.24;100.00;-24186.63;5070838;28;20637;-83
2023/01/20 10:19:20;;;;;;;1.30;1.20;;;;;;;13.25;100.00;-24187.03;5070521;28;20185;-80
2023/01/20 10:22:10;;;;;;;1.23;1.15;;;;;;;13.02;100.00;-24180.44;5070765;28;20177;-81
2023/01/20 10:24:51;;;;;;;1.40;1.10;;;;;;;13.13;100.00;-24183.66;5070438;28;20189;-80
2023/01/20 10:27:16;;;;;;;1.58;1.38;;;;;;;13.01;100.00;-24180.28;5070894;28;20695;-83
2023/01/20 10:29:54;;;;;;;1.40;1.30;;;;;;;13.18;100.00;-24184.94;5070933;28;20189;-80
2023/01/20 10:32:32;;;;;;;1.70;1.50;;;;;;;13.27;100.00;-24187.59;5071166;28;20180;-82
2023/01/20 10:35:02;;;;;;;1.58;1.40;;;;;;;13.12;100.00;-24183.25;5070403;28;20617;-80
2023/01/20 10:37:30;;;;;;;1.38;1.27;;;;;;;13.30;100.00;-24188.16;5070261;28;20170;-79
2023/01/20 10:40:25;;;;;;;1.25;1.13;;;;;;;13.55;100.00;-24195.31;5070555;28;20182;-83
2023/01/20 10:42:57;;;;;;;1.30;1.20;;;;;;;13.42;100.00;-24191.66;5066748;28;20574;-81
2023/01/20 10:45:59;;;;;;;1.90;1.10;;;;;;;13.53;100.00;-24194.63;5070530;28;20182;-82
2023/01/20 10:48:34;;;;;;;2.47;1.40;;;;;;;13.52;100.00;-24194.47;5070159;28;20194;-81
2023/01/20 10:51:17;;;;;;;1.35;1.25;;;;;;;13.33;100.00;-24189.00;5070279;28;20641;-79
2023/01/20 10:53:45;;;;;;;2.30;1.40;;;;;;;13.64;100.00;-24197.84;5071630;28;20197;-84
2023/01/20 10:56:19;;;;;;;1.80;1.13;;;;;;;13.24;100.00;-24186.75;5071482;28;20249;-82
2023/01/20 10:58:46;;;;;;;2.47;1.20;;;;;;;13.55;100.00;-24195.19;5069863;28;20184;-84
2023/01/20 11:01:17;;;;;;;4.97;1.50;;;;;;;13.34;100.00;-24189.44;5070700;28;20182;-82
2023/01/20 11:03:46;;;;;;;1.40;1.30;;;;;;;13.42;100.00;-24191.53;5070356;28;20250;-80
2023/01/20 11:06:18;;;;;;;3.40;1.27;;;;;;;13.19;100.00;-24185.34;5070181;28;20233;-81
2023/01/20 11:08:44;;;;;;;2.75;1.30;;;;;;;12.99;100.00;-24179.72;5071049;28;20213;-82
2023/01/20 11:11:18;;;;;;;2.22;1.30;;;;;;;12.89;100.00;-24176.78;5073737;28;20591;-83
2023/01/20 11:13:44;;;;;;;1.38;1.27;;;;;;;12.88;100.00;-24176.63;5073735;28;20212;-80
2023/01/20 11:16:25;;;;;;;1.73;1.15;;;;;;;12.72;100.00;-24172.13;5073933;28;20668;-81
2023/01/20 11:19:00;;;;;;;2.72;1.23;;;;;;;12.97;100.00;-24179.16;5077604;28;20178;-82
2023/01/20 11:21:28;;;;;;;1.80;1.00;;;;;;;12.94;100.00;-24178.19;5076955;28;20181;-81
2023/01/20 11:23:55;;;;;;;1.20;1.10;;;;;;;12.95;100.00;-24178.59;5084183;28;20192;-82
2023/01/20 11:26:32;;;;;;;2.08;1.48;;;;;;;12.68;100.00;-24171.00;5073081;28;20255;-82
2023/01/20 11:29:09;;;;;;;3.63;1.63;;;;;;;12.98;100.00;-24179.31;5073426;28;20182;-83
2023/01/20 11:31:42;;;;;;;1.13;1.02;;;;;;;12.98;100.00;-24179.44;5073669;28;20181;-80
2023/01/20 11:34:25;;;;;;;3.53;1.27;;;;;;;12.96;100.00;-24178.75;5073553;28;20186;-81
2023/01/20 11:37:21;;;;;;;1.55;1.45;;;;;;;13.26;100.00;-24187.31;5073517;28;20177;-82
2023/01/20 11:39:49;;;;;;;2.83;1.45;;;;;;;13.46;100.00;-24192.78;5073357;28;20235;-83